Time;durP1;ratioP1;P1;durP2;ratioP2;P2;SDS_P1;SDS_P2;PMS_P1;PMS_P2;Temp;Humidity;BMP_temperature;BMP_pressure;BME280_temperature;BME280_humidity;BME280_pressure;Samples;Min_cycle;Max_cycle;Signal;HPM_P1;HPM_P2
2022/11/05 00:10:22;;;;;;;8.52;3.03;;;6.70;99.90;;;;;;5071699;28;20083;-81
2022/11/05 00:18:20;;;;;;;7.28;2.60;;;6.60;99.90;;;;;;5056284;28;20530;-81
2022/11/05 00:20:45;;;;;;;5.90;2.87;;;6.60;99.90;;;;;;5054408;28;20033;-81
2022/11/05 00:26:04;;;;;;;7.28;3.03;;;6.50;99.90;;;;;;5056169;28;20057;-81
2022/11/05 00:28:31;;;;;;;9.98;3.10;;;6.50;99.90;;;;;;5038418;28;20044;-81
2022/11/05 00:31:02;;;;;;;9.52;2.88;;;6.50;99.90;;;;;;5054397;28;20443;-81
2022/11/05 00:33:28;;;;;;;8.05;2.90;;;6.50;99.90;;;;;;5054724;28;20032;-81
2022/11/05 00:35:54;;;;;;;12.97;3.00;;;6.50;99.90;;;;;;5070704;28;20132;-80
2022/11/05 00:38:19;;;;;;;8.80;2.70;;;7.20;99.90;;;;;;5054659;28;20032;-80
2022/11/05 00:40:45;;;;;;;9.13;2.70;;;6.40;99.90;;;;;;5070825;28;20051;-81
2022/11/05 00:45:55;;;;;;;5.40;2.50;;;6.40;99.90;;;;;;5070719;28;20091;-81
2022/11/05 00:51:05;;;;;;;6.97;2.75;;;6.40;99.90;;;;;;5069921;28;20101;-81
2022/11/05 00:53:31;;;;;;;7.22;2.55;;;6.40;99.90;;;;;;5070627;28;20063;-81
2022/11/05 00:55:57;;;;;;;5.63;2.63;;;6.90;99.90;;;;;;5054123;28;20044;-80
2022/11/05 00:58:23;;;;;;;7.43;2.80;;;6.40;99.90;;;;;;5054200;28;20036;-81
2022/11/05 01:00:51;;;;;;;10.55;2.38;;;6.40;99.90;;;;;;5053413;28;20040;-80
2022/11/05 01:03:21;;;;;;;9.27;2.70;;;6.30;99.90;;;;;;5070308;28;20025;-80
2022/11/05 01:05:49;;;;;;;7.32;2.20;;;6.50;99.90;;;;;;5070335;28;20044;-81
2022/11/05 01:08:17;;;;;;;4.82;2.00;;;6.30;99.90;;;;;;5070087;28;20044;-81
2022/11/05 01:10:46;;;;;;;7.45;2.30;;;6.30;99.90;;;;;;5070321;28;20037;-81
2022/11/05 01:13:13;;;;;;;6.68;2.30;;;6.30;99.90;;;;;;5053239;28;20043;-81
2022/11/05 01:15:39;;;;;;;6.82;2.70;;;6.30;99.90;;;;;;5068189;28;20129;-81
2022/11/05 01:18:05;;;;;;;4.78;3.05;;;6.20;99.90;;;;;;5069887;28;20039;-81
2022/11/05 01:20:31;;;;;;;4.93;2.33;;;6.20;99.90;;;;;;5053354;28;20119;-80
2022/11/05 01:22:57;;;;;;;6.10;2.63;;;6.20;99.90;;;;;;5069998;28;20037;-80
2022/11/05 01:25:23;;;;;;;13.15;2.70;;;6.20;99.90;;;;;;5052926;28;20106;-81
2022/11/05 01:27:48;;;;;;;7.63;1.80;;;6.20;99.90;;;;;;5069862;28;20047;-80
2022/11/05 01:30:14;;;;;;;6.63;2.23;;;6.20;99.90;;;;;;5053467;28;20048;-81
2022/11/05 01:32:40;;;;;;;8.35;2.40;;;6.10;99.90;;;;;;5069803;28;20314;-80
2022/11/05 01:35:09;;;;;;;5.18;2.00;;;6.10;99.90;;;;;;5053283;28;20111;-80
2022/11/05 01:37:35;;;;;;;5.38;1.90;;;6.10;99.90;;;;;;5069905;28;20037;-80
2022/11/05 01:40:00;;;;;;;7.28;2.05;;;6.00;99.90;;;;;;5053062;28;20040;-81
2022/11/05 01:42:27;;;;;;;5.85;1.90;;;6.00;99.90;;;;;;5069833;28;20037;-81
2022/11/05 01:45:00;;;;;;;;;;;6.00;99.90;;;;;;5053652;28;20507;-80
2022/11/05 01:47:34;;;;;;;6.85;1.65;;;6.00;99.90;;;;;;5068316;28;19970;-81
2022/11/05 01:50:18;;;;;;;6.40;1.90;;;6.00;99.90;;;;;;5069447;28;20064;-80
2022/11/05 01:52:45;;;;;;;6.03;1.83;;;6.00;99.90;;;;;;5069849;28;20127;-81
2022/11/05 01:55:15;;;;;;;6.35;2.00;;;6.30;99.90;;;;;;5069405;28;20434;-80
2022/11/05 01:57:41;;;;;;;8.02;2.10;;;5.90;99.90;;;;;;5069716;28;20079;-80
2022/11/05 02:00:07;;;;;;;9.13;2.40;;;5.90;99.90;;;;;;5069256;28;20075;-80
2022/11/05 02:02:33;;;;;;;6.68;2.10;;;5.80;99.90;;;;;;5069486;28;20425;-80
2022/11/05 02:05:02;;;;;;;6.38;1.92;;;5.80;99.90;;;;;;5069074;28;20077;-80
2022/11/05 02:07:29;;;;;;;5.60;1.98;;;5.80;99.90;;;;;;5068378;28;20037;-80
2022/11/05 02:10:01;;;;;;;6.65;1.90;;;6.00;99.90;;;;;;5068482;28;20115;-80
2022/11/05 02:12:28;;;;;;;4.53;1.77;;;5.90;99.90;;;;;;5067959;28;20044;-80
2022/11/05 02:14:57;;;;;;;5.28;2.03;;;5.80;99.90;;;;;;5036921;28;20048;-81
2022/11/05 02:17:55;;;;;;;5.47;1.90;;;5.70;99.90;;;;;;5070104;28;20051;-80
2022/11/05 02:21:02;;;;;;;7.25;2.00;;;5.70;99.90;;;;;;5069434;28;20039;-80
2022/11/05 02:23:58;;;;;;;4.80;1.90;;;5.70;99.90;;;;;;5068800;28;20116;-81
2022/11/05 02:26:36;;;;;;;4.80;1.90;;;5.70;99.90;;;;;;5051632;28;20125;-80
2022/11/05 02:29:20;;;;;;;5.45;1.80;;;5.70;99.90;;;;;;5069815;28;20041;-81
2022/11/05 02:32:02;;;;;;;4.85;1.77;;;6.30;99.90;;;;;;5069585;28;20035;-80
2022/11/05 02:34:34;;;;;;;6.78;1.70;;;5.70;99.90;;;;;;5070236;28;20028;-80
2022/11/05 02:37:13;;;;;;;4.88;1.60;;;5.70;99.90;;;;;;5070750;28;20044;-80
2022/11/05 02:39:44;;;;;;;7.07;1.90;;;5.60;99.90;;;;;;5073855;28;20968;-80
2022/11/05 02:42:27;;;;;;;5.55;1.30;;;5.70;99.90;;;;;;5057063;28;20519;-80
2022/11/05 02:45:10;;;;;;;5.05;1.80;;;5.50;99.90;;;;;;5074038;28;20400;-80
2022/11/05 02:48:14;;;;;;;7.38;1.95;;;5.50;99.90;;;;;;5073322;28;20433;-79
2022/11/05 02:50:52;;;;;;;5.65;1.55;;;5.50;99.90;;;;;;5024359;28;20040;-80
2022/11/05 02:53:50;;;;;;;5.20;1.90;;;5.50;99.90;;;;;;5073530;28;20110;-79
2022/11/05 02:56:27;;;;;;;5.50;1.85;;;5.50;99.90;;;;;;5063751;28;20523;-80
2022/11/05 02:58:53;;;;;;;6.32;2.03;;;5.80;99.90;;;;;;5073549;28;20064;-80
2022/11/05 03:01:19;;;;;;;4.73;1.60;;;5.50;99.90;;;;;;5073128;28;20121;-80
2022/11/05 03:03:59;;;;;;;3.87;1.63;;;6.20;99.90;;;;;;5056770;28;20040;-80
2022/11/05 03:06:43;;;;;;;4.70;1.90;;;6.30;99.90;;;;;;5056155;28;20040;-80
2022/11/05 03:09:30;;;;;;;5.55;1.70;;;5.50;99.90;;;;;;5072851;28;20051;-81
2022/11/05 03:12:24;;;;;;;5.97;1.77;;;5.40;99.90;;;;;;5073119;28;20051;-81
2022/11/05 03:15:24;;;;;;;6.75;1.73;;;5.40;99.90;;;;;;5070705;28;20496;-81
2022/11/05 03:17:58;;;;;;;7.30;2.13;;;5.40;99.90;;;;;;5071076;28;20063;-81
2022/11/05 03:20:38;;;;;;;5.22;1.90;;;5.50;99.90;;;;;;5072705;28;20123;-81
2022/11/05 03:23:08;;;;;;;4.93;1.80;;;5.40;99.90;;;;;;5073047;28;20396;-81
2022/11/05 03:25:42;;;;;;;4.65;1.90;;;5.50;99.90;;;;;;5072618;28;20467;-81
2022/11/05 03:28:10;;;;;;;3.40;1.70;;;5.40;99.90;;;;;;5072614;28;20036;-81
2022/11/05 03:30:38;;;;;;;5.63;1.52;;;5.40;99.90;;;;;;5072771;28;20082;-81
2022/11/05 03:33:11;;;;;;;4.38;1.73;;;5.40;99.90;;;;;;5072666;28;20543;-81
2022/11/05 03:35:45;;;;;;;7.03;1.70;;;6.00;99.90;;;;;;5070158;28;20032;-81
2022/11/05 03:38:21;;;;;;;3.80;1.80;;;5.90;99.90;;;;;;5072316;28;20028;-81
2022/11/05 03:40:52;;;;;;;5.75;1.73;;;5.60;99.90;;;;;;5071116;28;20032;-81
2022/11/05 03:43:21;;;;;;;3.88;1.60;;;5.40;99.90;;;;;;5072402;28;20508;-81
2022/11/05 03:46:11;;;;;;;4.35;1.70;;;5.50;99.90;;;;;;5072232;28;20169;-81
2022/11/05 03:48:44;;;;;;;9.73;2.22;;;5.50;99.90;;;;;;5054431;28;20052;-81
2022/11/05 03:51:12;;;;;;;4.35;2.00;;;5.60;99.90;;;;;;5072144;28;20119;-81
2022/11/05 03:53:47;;;;;;;5.70;2.05;;;5.70;99.90;;;;;;5055774;28;20105;-81
2022/11/05 03:56:46;;;;;;;5.68;1.85;;;5.70;99.90;;;;;;5071644;28;20094;-81
2022/11/05 03:59:13;;;;;;;7.60;2.05;;;5.90;99.90;;;;;;5036581;28;20123;-81
2022/11/05 04:01:41;;;;;;;4.43;2.08;;;6.70;99.90;;;;;;5055591;28;20508;-79
2022/11/05 04:04:08;;;;;;;5.95;2.25;;;6.20;99.90;;;;;;5053896;28;20047;-79
2022/11/05 04:14:46;;;;;;;5.60;2.30;;;6.30;99.90;;;;;;5070700;28;20052;-79
2022/11/05 04:17:12;;;;;;;5.03;2.17;;;6.40;99.90;;;;;;5070898;28;20481;-79
2022/11/05 04:25:10;;;;;;;6.40;2.40;;;6.40;99.90;;;;;;5070363;28;20044;-79
2022/11/05 04:27:36;;;;;;;7.85;2.70;;;6.40;99.90;;;;;;5070858;28;20051;-79
2022/11/05 04:30:18;;;;;;;9.68;2.67;;;6.40;99.90;;;;;;5071216;28;20044;-79
2022/11/05 04:33:13;;;;;;;8.73;2.40;;;6.40;99.90;;;;;;5071110;28;20401;-79
2022/11/05 04:35:44;;;;;;;5.25;2.20;;;6.40;99.90;;;;;;5070753;28;20041;-79
2022/11/05 04:38:16;;;;;;;7.15;2.40;;;6.50;99.90;;;;;;5064520;28;20108;-79
2022/11/05 04:40:42;;;;;;;8.65;3.35;;;6.50;99.90;;;;;;5054068;28;20032;-79
2022/11/05 04:43:10;;;;;;;;;;;6.50;99.90;;;;;;5070323;28;20040;-79
2022/11/05 04:45:36;;;;;;;7.63;3.13;;;6.40;99.90;;;;;;5069390;28;19923;-79
2022/11/05 04:48:03;;;;;;;7.03;3.20;;;6.50;99.90;;;;;;5052910;28;20399;-79
2022/11/05 04:50:29;;;;;;;7.57;3.20;;;6.40;99.90;;;;;;5052827;28;20044;-79
2022/11/05 04:52:55;;;;;;;5.30;2.95;;;7.00;99.90;;;;;;5053632;28;20161;-79
2022/11/05 04:55:21;;;;;;;6.57;3.08;;;6.40;99.90;;;;;;5069990;28;20136;-79
2022/11/05 04:57:51;;;;;;;5.57;3.13;;;6.40;99.90;;;;;;5037019;28;20043;-79
2022/11/05 05:00:18;;;;;;;5.55;3.30;;;6.30;99.90;;;;;;5052362;28;20036;-79
2022/11/05 05:02:44;;;;;;;10.57;4.07;;;6.30;99.90;;;;;;5037004;28;20450;-79
2022/11/05 05:05:10;;;;;;;8.55;3.78;;;6.30;99.90;;;;;;5053643;28;20448;-79
2022/11/05 05:07:35;;;;;;;13.02;4.30;;;6.50;99.90;;;;;;5070087;28;20126;-79
2022/11/05 05:10:03;;;;;;;7.23;4.20;;;6.20;99.90;;;;;;5070246;28;20044;-79
2022/11/05 05:12:30;;;;;;;9.85;3.70;;;6.30;99.90;;;;;;5069440;28;20119;-79
2022/11/05 05:14:56;;;;;;;10.50;3.97;;;6.30;99.90;;;;;;5069494;28;20036;-79
2022/11/05 05:17:22;;;;;;;6.73;4.17;;;6.30;99.90;;;;;;5052829;28;20170;-79
2022/11/05 05:22:32;;;;;;;11.15;4.25;;;6.20;99.90;;;;;;5067339;28;20044;-79
2022/11/05 05:24:58;;;;;;;11.32;4.07;;;7.40;99.90;;;;;;5052873;28;20089;-79
2022/11/05 05:27:28;;;;;;;9.02;3.95;;;6.10;99.90;;;;;;5052781;28;20172;-79
2022/11/05 05:29:55;;;;;;;7.85;3.55;;;6.00;99.90;;;;;;5069542;28;20075;-79
2022/11/05 05:32:21;;;;;;;12.07;3.67;;;6.00;99.90;;;;;;5066865;28;20173;-79
2022/11/05 05:34:47;;;;;;;9.45;3.63;;;6.00;99.90;;;;;;5069752;28;20480;-79
2022/11/05 05:37:12;;;;;;;6.97;3.30;;;6.60;99.90;;;;;;5053125;28;20043;-81
2022/11/05 05:39:38;;;;;;;7.13;3.30;;;5.90;99.90;;;;;;5053107;28;20111;-81
2022/11/05 05:42:04;;;;;;;5.57;3.27;;;5.90;99.90;;;;;;5070095;28;20051;-81
2022/11/05 05:44:30;;;;;;;6.45;3.25;;;5.90;99.90;;;;;;5069615;28;20044;-81
2022/11/05 05:46:55;;;;;;;7.53;3.27;;;5.90;99.90;;;;;;5069523;28;20403;-81
2022/11/05 05:49:21;;;;;;;12.87;4.00;;;5.80;99.90;;;;;;5069597;28;20036;-81
2022/11/05 05:51:49;;;;;;;7.17;3.60;;;5.70;99.90;;;;;;5069270;28;20066;-81
2022/11/05 05:54:15;;;;;;;7.35;3.80;;;5.80;99.90;;;;;;5069321;28;20094;-81
2022/11/05 05:56:44;;;;;;;6.25;3.42;;;5.60;99.90;;;;;;5069225;28;20028;-81
2022/11/05 05:59:10;;;;;;;5.72;3.38;;;5.60;99.90;;;;;;5069799;28;20392;-81
2022/11/05 06:01:36;;;;;;;7.03;3.95;;;5.60;99.90;;;;;;5069098;28;20123;-81
2022/11/05 06:04:02;;;;;;;6.75;3.90;;;5.50;99.90;;;;;;5069635;28;20115;-81
2022/11/05 06:06:27;;;;;;;8.03;3.50;;;5.60;99.90;;;;;;5069494;28;20091;-81
2022/11/05 06:08:54;;;;;;;8.43;4.13;;;5.50;99.90;;;;;;5053299;28;20142;-81
2022/11/05 06:11:21;;;;;;;7.38;3.88;;;5.50;99.90;;;;;;5069103;28;20115;-81
2022/11/05 06:13:47;;;;;;;8.20;4.05;;;5.60;99.90;;;;;;5052271;28;20025;-81
2022/11/05 06:16:13;;;;;;;8.50;4.03;;;5.60;99.90;;;;;;5069456;28;20484;-81
2022/11/05 06:18:38;;;;;;;7.78;3.83;;;5.70;99.90;;;;;;5069439;28;20469;-81
2022/11/05 06:21:08;;;;;;;8.87;4.60;;;5.70;99.90;;;;;;5053042;28;20124;-81
2022/11/05 06:23:35;;;;;;;8.88;4.40;;;5.70;99.90;;;;;;5069109;28;20074;-81
2022/11/05 06:26:02;;;;;;;7.90;4.70;;;5.70;99.90;;;;;;5050615;28;20139;-81
2022/11/05 06:28:29;;;;;;;6.97;4.22;;;5.70;99.90;;;;;;5069275;28;20040;-82
2022/11/05 06:30:56;;;;;;;9.73;4.55;;;5.70;99.90;;;;;;5069599;28;20051;-81
2022/11/05 06:33:22;;;;;;;12.93;4.90;;;5.60;99.90;;;;;;5069181;28;20046;-81
2022/11/05 06:35:48;;;;;;;10.80;4.47;;;5.80;99.90;;;;;;5069081;28;20079;-81
2022/11/05 06:38:14;;;;;;;10.60;5.03;;;5.50;99.90;;;;;;5052580;28;20044;-81
2022/11/05 06:40:40;;;;;;;10.60;4.50;;;6.90;99.90;;;;;;5068986;28;20287;-81
2022/11/05 06:43:05;;;;;;;12.25;4.65;;;5.50;99.90;;;;;;5052398;28;20044;-81
2022/11/05 06:45:31;;;;;;;10.27;5.47;;;5.50;99.90;;;;;;5069068;28;20047;-82
2022/11/05 06:47:57;;;;;;;12.63;5.30;;;5.50;99.90;;;;;;5069197;28;20062;-82
2022/11/05 06:50:24;;;;;;;12.18;4.85;;;5.40;99.90;;;;;;5068967;28;20070;-82
2022/11/05 06:52:58;;;;;;;9.05;4.72;;;5.40;99.90;;;;;;5069243;28;20374;-82
2022/11/05 06:55:25;;;;;;;12.18;4.95;;;5.50;99.90;;;;;;5052188;28;20098;-82
2022/11/05 06:57:52;;;;;;;11.38;4.82;;;5.40;99.90;;;;;;5052541;28;20049;-82
2022/11/05 07:00:18;;;;;;;10.20;4.97;;;5.40;99.90;;;;;;5035866;28;20033;-82
2022/11/05 07:02:44;;;;;;;8.15;4.65;;;5.40;99.90;;;;;;5052410;28;20484;-82
2022/11/05 07:05:10;;;;;;;7.75;4.70;;;5.40;99.90;;;;;;5069440;28;20037;-80
2022/11/05 07:07:37;;;;;;;10.07;4.97;;;5.40;99.90;;;;;;5051868;28;20040;-81
2022/11/05 07:10:04;;;;;;;10.80;5.13;;;5.50;99.90;;;;;;5052444;28;20033;-81
2022/11/05 07:12:30;;;;;;;8.02;4.43;;;5.40;99.90;;;;;;5068526;28;20071;-80
2022/11/05 07:14:56;;;;;;;7.73;4.50;;;5.40;99.90;;;;;;5068463;28;20087;-81
2022/11/05 07:17:21;;;;;;;9.43;4.97;;;5.40;99.90;;;;;;5068950;28;20036;-82
2022/11/05 07:19:47;;;;;;;12.38;5.05;;;5.50;99.90;;;;;;5052938;28;20040;-81
2022/11/05 07:22:13;;;;;;;7.57;4.07;;;6.50;99.90;;;;;;5069035;28;20036;-82
2022/11/05 07:24:38;;;;;;;9.67;4.40;;;6.10;99.90;;;;;;5053475;28;20333;-81
2022/11/05 07:27:04;;;;;;;7.33;3.57;;;6.60;99.90;;;;;;5055694;28;20060;-82
2022/11/05 07:29:30;;;;;;;9.25;4.05;;;7.00;99.90;;;;;;5071947;28;20063;-82
2022/11/05 07:31:55;;;;;;;6.50;3.70;;;7.20;99.90;;;;;;5055708;28;20040;-83
2022/11/05 07:34:21;;;;;;;7.47;4.17;;;7.10;99.90;;;;;;5055619;28;20119;-83
2022/11/05 07:36:47;;;;;;;7.97;3.70;;;6.90;99.90;;;;;;5055090;28;20028;-82
2022/11/05 07:39:12;;;;;;;5.32;3.53;;;6.80;99.90;;;;;;5072548;28;20370;-82
2022/11/05 07:41:38;;;;;;;5.50;3.30;;;7.10;99.90;;;;;;5071887;28;20028;-82
2022/11/05 07:44:04;;;;;;;4.60;3.10;;;7.60;99.90;;;;;;5072132;28;20041;-82
2022/11/05 07:46:29;;;;;;;5.90;3.33;;;8.10;99.90;;;;;;5071545;28;20120;-82
2022/11/05 07:48:55;;;;;;;7.37;3.93;;;8.40;99.90;;;;;;5055359;28;20453;-81
2022/11/05 07:51:21;;;;;;;3.93;3.17;;;8.40;99.90;;;;;;5038889;28;20051;-81
2022/11/05 07:53:47;;;;;;;7.78;3.75;;;8.40;99.90;;;;;;5071170;28;20036;-81
2022/11/05 07:56:13;;;;;;;7.22;3.22;;;8.70;99.90;;;;;;5070546;28;20060;-82
2022/11/05 07:58:39;;;;;;;;;;;9.10;99.90;;;;;;5070777;28;20384;-81
2022/11/05 08:01:06;;;;;;;9.70;3.00;;;9.20;99.90;;;;;;5053995;28;19916;-82
2022/11/05 08:03:32;;;;;;;;;;;9.40;99.90;;;;;;5071222;28;20048;-81
2022/11/05 08:05:57;;;;;;;6.35;2.80;;;9.60;99.90;;;;;;5071871;28;20402;-82
2022/11/05 08:08:23;;;;;;;5.77;2.90;;;9.70;99.90;;;;;;5055446;28;20044;-82
2022/11/05 08:10:49;;;;;;;6.10;3.08;;;10.20;99.90;;;;;;5071639;28;20040;-82
2022/11/05 08:13:15;;;;;;;4.17;2.83;;;10.60;99.90;;;;;;5055534;28;20040;-82
2022/11/05 08:15:42;;;;;;;7.03;2.78;;;11.20;99.90;;;;;;5070648;28;20040;-80
2022/11/05 08:18:12;;;;;;;5.30;2.75;;;11.80;99.90;;;;;;5071994;28;20558;-81
2022/11/05 08:20:39;;;;;;;6.35;2.60;;;12.30;99.90;;;;;;5070870;28;20075;-80
2022/11/05 08:23:05;;;;;;;7.88;2.70;;;12.80;99.90;;;;;;5061867;28;20050;-79
2022/11/05 08:25:31;;;;;;;5.77;2.27;;;13.10;99.90;;;;;;5064511;28;20597;-80
2022/11/05 08:28:02;;;;;;;4.07;2.10;;;13.70;99.90;;;;;;5070282;28;20071;-79
2022/11/05 08:30:29;;;;;;;3.72;1.80;;;14.00;99.90;;;;;;5051872;28;20586;-79
2022/11/05 08:33:06;;;;;;;5.40;2.38;;;13.70;99.90;;;;;;5068781;28;20048;-80
2022/11/05 08:35:33;;;;;;;5.82;2.55;;;13.20;99.90;;;;;;5066751;28;20037;-80
2022/11/05 08:38:01;;;;;;;5.00;2.50;;;12.50;99.90;;;;;;5070904;28;20112;-81
2022/11/05 08:40:29;;;;;;;3.33;1.88;;;12.70;99.90;;;;;;5054769;28;20043;-79
2022/11/05 08:42:59;;;;;;;4.78;2.20;;;13.20;99.90;;;;;;5070511;28;20040;-82
2022/11/05 08:45:26;;;;;;;6.32;2.33;;;14.00;99.90;;;;;;5067227;28;20106;-80
2022/11/05 08:47:59;;;;;;;4.15;1.90;;;14.60;99.90;;;;;;5052810;28;20094;-80
2022/11/05 08:50:25;;;;;;;4.35;2.38;;;15.10;99.90;;;;;;5051797;28;20508;-79
2022/11/05 08:52:51;;;;;;;7.68;2.20;;;15.40;99.90;;;;;;5053811;28;20044;-80
2022/11/05 08:55:17;;;;;;;3.65;1.98;;;15.80;99.90;;;;;;5072549;28;20056;-81
2022/11/05 08:57:45;;;;;;;;;;;16.10;99.90;;;;;;5068292;28;20039;-81
2022/11/05 09:00:11;;;;;;;3.10;1.70;;;16.50;99.90;;;;;;5068264;28;19941;-80
2022/11/05 09:02:37;;;;;;;;;;;16.60;99.90;;;;;;5050433;28;20067;-80
2022/11/05 09:05:03;;;;;;;3.40;1.70;;;16.70;99.90;;;;;;5069450;28;20437;-80
2022/11/05 09:07:28;;;;;;;3.83;1.90;;;16.70;99.90;;;;;;5071532;28;20040;-80
2022/11/05 09:09:54;;;;;;;3.72;1.77;;;17.00;99.90;;;;;;5070274;28;20040;-80
2022/11/05 09:12:19;;;;;;;3.78;1.50;;;17.20;99.90;;;;;;5070914;28;20052;-80
2022/11/05 09:14:45;;;;;;;2.88;1.35;;;17.80;99.90;;;;;;5053583;28;20076;-80
2022/11/05 09:17:20;;;;;;;3.22;1.55;;;17.80;99.90;;;;;;5070273;28;20123;-81
2022/11/05 09:19:46;;;;;;;4.72;1.50;;;17.70;99.90;;;;;;5070287;28;20087;-80
2022/11/05 09:22:11;;;;;;;4.43;1.60;;;18.00;99.90;;;;;;5070212;28;20505;-80
2022/11/05 09:24:42;;;;;;;4.43;1.70;;;18.50;99.90;;;;;;5069883;28;20040;-80
2022/11/05 09:27:13;;;;;;;6.75;1.70;;;18.70;99.90;;;;;;5070059;28;20063;-80
2022/11/05 09:29:40;;;;;;;3.33;1.40;;;18.70;99.90;;;;;;5069418;28;20050;-80
2022/11/05 09:32:06;;;;;;;4.57;1.55;;;18.80;99.90;;;;;;5053421;28;20048;-81
2022/11/05 09:34:32;;;;;;;;;;;18.80;99.90;;;;;;5070946;28;20037;-80
2022/11/05 09:36:58;;;;;;;5.47;1.50;;;19.00;99.90;;;;;;5069454;28;20412;-80
2022/11/05 09:39:23;;;;;;;3.90;1.40;;;18.50;99.90;;;;;;5054416;28;20460;-81
2022/11/05 09:41:52;;;;;;;3.33;1.27;;;18.00;99.90;;;;;;5070320;28;20043;-82
2022/11/05 09:44:22;;;;;;;2.63;1.23;;;17.60;99.90;;;;;;5070368;28;20465;-81
2022/11/05 09:46:52;;;;;;;3.63;1.40;;;17.10;99.90;;;;;;5069035;28;20365;-81
2022/11/05 09:49:38;;;;;;;4.07;1.58;;;17.10;99.90;;;;;;5053261;28;20060;-79
2022/11/05 09:52:05;;;;;;;5.18;1.38;;;17.80;99.90;;;;;;5069713;28;20047;-80
2022/11/05 09:54:32;;;;;;;4.10;1.60;;;18.70;99.90;;;;;;5069718;28;20048;-80
2022/11/05 09:57:00;;;;;;;2.40;1.30;;;19.30;99.90;;;;;;5052456;28;20052;-79
2022/11/05 09:59:36;;;;;;;4.80;1.50;;;19.60;99.90;;;;;;5053126;28;20072;-81
2022/11/05 10:02:12;;;;;;;2.60;1.20;;;19.90;99.90;;;;;;5052816;28;20052;-82
2022/11/05 10:04:40;;;;;;;3.37;1.20;;;20.20;99.90;;;;;;5053221;28;20040;-82
2022/11/05 10:07:11;;;;;;;4.07;1.40;;;20.40;99.90;;;;;;5067247;28;20049;-82
2022/11/05 10:09:46;;;;;;;2.95;1.10;;;20.40;99.90;;;;;;5053139;28;20052;-81
2022/11/05 10:12:36;;;;;;;3.45;1.48;;;20.80;99.90;;;;;;5070927;28;20060;-82
2022/11/05 10:15:14;;;;;;;2.78;1.50;;;21.10;99.90;;;;;;5068264;28;20044;-80
2022/11/05 10:17:43;;;;;;;2.63;1.30;;;21.00;99.90;;;;;;5067725;28;20044;-80
2022/11/05 10:20:14;;;;;;;4.10;1.13;;;21.00;99.90;;;;;;5069697;28;20065;-80
2022/11/05 10:22:39;;;;;;;5.78;1.42;;;21.20;99.90;;;;;;5069713;28;20040;-80
2022/11/05 10:25:19;;;;;;;3.95;1.30;;;21.10;99.90;;;;;;5069406;28;20518;-79
2022/11/05 10:27:50;;;;;;;4.32;1.20;;;21.30;99.90;;;;;;5069557;28;20086;-80
2022/11/05 10:30:16;;;;;;;4.90;1.20;;;20.90;99.90;;;;;;5053102;28;20118;-79
2022/11/05 10:32:43;;;;;;;4.72;1.27;;;21.20;99.90;;;;;;5053070;28;20577;-80
2022/11/05 10:35:17;;;;;;;3.97;1.30;;;21.20;99.90;;;;;;5069441;28;20044;-81
2022/11/05 10:37:48;;;;;;;2.88;1.50;;;21.10;99.90;;;;;;5068664;28;20119;-79
2022/11/05 10:40:37;;;;;;;4.65;1.10;;;21.00;99.90;;;;;;5069170;28;20102;-80
2022/11/05 10:43:16;;;;;;;2.83;1.27;;;21.40;99.90;;;;;;5067977;28;20408;-82
2022/11/05 10:45:54;;;;;;;2.90;0.95;;;21.60;99.90;;;;;;5070150;28;20045;-81
2022/11/05 10:48:48;;;;;;;4.03;1.10;;;22.00;99.90;;;;;;5071011;28;20100;-80
2022/11/05 10:51:15;;;;;;;5.13;1.20;;;22.00;99.90;;;;;;5053807;28;20041;-81
2022/11/05 10:53:54;;;;;;;2.85;1.15;;;22.00;99.90;;;;;;5070313;28;20048;-80
2022/11/05 10:56:47;;;;;;;5.03;1.30;;;22.10;99.90;;;;;;5050924;28;20385;-80
2022/11/05 10:59:26;;;;;;;4.85;1.10;;;22.20;99.90;;;;;;5066809;28;20036;-79
2022/11/05 11:02:20;;;;;;;2.78;1.10;;;22.00;99.90;;;;;;5075185;28;20036;-79
2022/11/05 11:04:52;;;;;;;4.80;1.05;;;22.00;99.90;;;;;;5073978;28;20040;-79
2022/11/05 11:07:24;;;;;;;4.80;1.10;;;21.90;99.90;;;;;;5073460;28;20524;-78
2022/11/05 11:09:51;;;;;;;4.25;1.10;;;22.00;99.90;;;;;;5073357;28;20044;-79
2022/11/05 11:12:23;;;;;;;5.43;1.15;;;22.20;99.90;;;;;;5073084;28;20036;-80
2022/11/05 11:15:11;;;;;;;2.80;0.98;;;22.30;99.90;;;;;;5058759;28;20373;-79
2022/11/05 11:17:37;;;;;;;3.55;1.00;;;21.80;99.90;;;;;;5093325;28;20041;-82
2022/11/05 11:20:15;;;;;;;6.43;1.45;;;21.60;99.90;;;;;;5076114;28;20441;-81
2022/11/05 11:22:41;;;;;;;2.42;0.70;;;21.20;99.90;;;;;;5056109;28;20036;-81
2022/11/05 11:25:49;;;;;;;3.72;1.10;;;21.80;99.90;;;;;;5075719;28;20050;-81
2022/11/05 11:28:25;;;;;;;2.92;1.02;;;22.00;99.90;;;;;;5071117;28;20040;-82
2022/11/05 11:31:09;;;;;;;5.32;0.93;;;22.40;99.90;;;;;;5070172;28;20048;-81
2022/11/05 11:33:36;;;;;;;3.15;0.85;;;22.20;99.60;;;;;;5054501;28;20076;-82
2022/11/05 11:36:02;;;;;;;3.92;0.95;;;22.20;99.90;;;;;;5055249;28;20036;-81
2022/11/05 11:38:31;;;;;;;5.80;1.15;;;22.80;99.40;;;;;;5072736;28;20167;-82
2022/11/05 11:41:19;;;;;;;3.53;0.88;;;22.90;99.50;;;;;;5072034;28;20208;-81
2022/11/05 11:43:45;;;;;;;;;;;23.10;98.80;;;;;;5072570;28;20032;-82
2022/11/05 11:46:16;;;;;;;1.75;0.80;;;22.80;98.70;;;;;;5038983;28;19923;-82
2022/11/05 11:48:46;;;;;;;4.32;0.80;;;22.90;99.20;;;;;;5072408;28;20069;-82
2022/11/05 11:51:39;;;;;;;3.30;0.93;;;22.80;98.90;;;;;;5069623;28;20067;-82
2022/11/05 11:54:17;;;;;;;2.85;0.85;;;22.40;99.00;;;;;;5064477;28;20072;-82
2022/11/05 11:56:45;;;;;;;3.60;1.00;;;21.70;99.00;;;;;;5054175;28;20079;-82
2022/11/05 11:59:26;;;;;;;3.20;0.80;;;20.90;99.50;;;;;;5069830;28;20496;-81
2022/11/05 12:02:18;;;;;;;3.80;0.98;;;19.90;99.90;;;;;;5070004;28;20044;-82
2022/11/05 12:05:02;;;;;;;3.88;0.93;;;19.10;99.90;;;;;;5072348;28;20044;-82
2022/11/05 12:07:52;;;;;;;3.75;0.93;;;18.70;99.90;;;;;;5070300;28;20040;-82
2022/11/05 12:10:21;;;;;;;3.90;0.90;;;18.20;99.90;;;;;;5054222;28;20045;-82
2022/11/05 12:13:02;;;;;;;3.35;0.73;;;17.80;99.90;;;;;;5069885;28;20119;-82
2022/11/05 12:15:46;;;;;;;2.92;0.70;;;17.40;99.90;;;;;;5070233;28;20076;-82
2022/11/05 12:18:49;;;;;;;3.45;0.63;;;16.90;99.90;;;;;;5053810;28;20035;-82
2022/11/05 12:21:38;;;;;;;1.95;0.63;;;16.60;99.90;;;;;;5070385;28;20130;-82
2022/11/05 12:24:13;;;;;;;3.78;0.80;;;16.20;99.90;;;;;;5054649;28;20075;-82
2022/11/05 12:27:08;;;;;;;2.67;0.82;;;16.00;99.90;;;;;;5071584;28;20052;-82
2022/11/05 12:29:41;;;;;;;2.20;0.82;;;15.80;99.90;;;;;;5064818;28;20045;-81
2022/11/05 12:32:37;;;;;;;2.08;0.63;;;15.50;99.90;;;;;;5071666;28;20037;-74
2022/11/05 12:35:22;;;;;;;1.90;0.60;;;15.40;99.90;;;;;;5040048;28;20057;-74
2022/11/05 12:38:13;;;;;;;2.97;0.60;;;15.20;99.90;;;;;;5069186;28;20094;-74
2022/11/05 12:40:52;;;;;;;3.13;0.60;;;15.10;99.90;;;;;;5070638;28;20037;-73
2022/11/05 12:44:06;;;;;;;2.28;0.93;;;14.90;99.90;;;;;;5071081;28;20033;-74
2022/11/05 12:46:36;;;;;;;1.73;0.68;;;14.80;99.90;;;;;;5058274;28;20087;-73
2022/11/05 12:49:20;;;;;;;2.28;0.68;;;14.80;99.90;;;;;;5068601;28;20043;-74
2022/11/05 12:52:10;;;;;;;4.15;1.00;;;14.70;99.90;;;;;;5070897;28;20052;-74
2022/11/05 12:54:58;;;;;;;4.20;0.90;;;14.70;99.90;;;;;;5070613;28;20105;-73
2022/11/05 12:57:25;;;;;;;2.75;0.80;;;14.70;99.90;;;;;;5070769;28;20040;-73
2022/11/05 13:00:07;;;;;;;3.03;0.85;;;14.60;99.90;;;;;;5070352;28;20040;-73
2022/11/05 13:02:39;;;;;;;3.45;0.88;;;14.60;99.90;;;;;;5068912;28;20120;-73
2022/11/05 13:05:38;;;;;;;5.07;0.90;;;14.80;99.90;;;;;;5069897;28;20040;-73
2022/11/05 13:08:20;;;;;;;3.70;1.10;;;14.80;99.90;;;;;;5069764;28;20512;-73
2022/11/05 13:10:54;;;;;;;3.25;1.10;;;14.70;99.90;;;;;;5069889;28;20593;-73
2022/11/05 13:13:25;;;;;;;3.47;1.20;;;14.60;99.90;;;;;;5069539;28;20102;-73
2022/11/05 13:16:15;;;;;;;3.80;1.13;;;14.60;99.90;;;;;;5067506;28;20049;-73
2022/11/05 13:18:51;;;;;;;3.47;0.85;;;14.70;99.90;;;;;;5069393;28;20101;-73
2022/11/05 13:21:22;;;;;;;4.00;1.10;;;14.70;99.90;;;;;;5067125;28;20079;-73
2022/11/05 13:23:52;;;;;;;3.13;0.85;;;14.80;99.90;;;;;;5069815;28;20500;-72
2022/11/05 13:26:45;;;;;;;3.88;0.90;;;14.80;99.90;;;;;;5069278;28;20436;-72
2022/11/05 13:29:33;;;;;;;3.78;0.93;;;14.80;99.90;;;;;;5069555;28;20080;-72
2022/11/05 13:32:07;;;;;;;;;;;14.80;99.90;;;;;;5067910;28;20036;-73
2022/11/05 13:34:32;;;;;;;4.85;0.88;;;14.80;99.90;;;;;;5053134;28;20019;-73
2022/11/05 13:39:57;;;;;;;2.38;1.00;;;14.80;99.90;;;;;;5067870;28;20059;-72
2022/11/05 13:42:41;;;;;;;3.05;0.98;;;14.80;99.90;;;;;;5069208;28;20049;-72
2022/11/05 13:45:41;;;;;;;3.78;1.10;;;14.80;99.90;;;;;;5067166;28;20037;-73
2022/11/05 13:48:48;;;;;;;5.13;1.30;;;14.80;99.90;;;;;;5067430;28;20072;-73
2022/11/05 13:51:23;;;;;;;3.80;1.00;;;14.70;99.90;;;;;;5051862;28;20086;-73
2022/11/05 13:54:00;;;;;;;5.35;1.42;;;14.60;99.90;;;;;;5067789;28;20081;-73
2022/11/05 13:56:50;;;;;;;3.15;1.23;;;14.60;99.90;;;;;;5067418;28;20089;-73
2022/11/05 13:59:18;;;;;;;5.07;1.20;;;14.60;99.90;;;;;;5052524;28;20469;-73
2022/11/05 14:01:48;;;;;;;4.32;1.20;;;14.50;99.90;;;;;;5069572;28;20036;-73
2022/11/05 14:04:27;;;;;;;4.20;1.52;;;14.40;99.90;;;;;;5052621;28;20063;-73